Terminal Aerodrome Forecast
Issued by NWS Rapid City, SD

Home | Current Version | Previous Version | Text Only | Print | Product List | Glossary Off
Versions: 1 2 3 4 5 6 7 8 9 10 11 12 13 14 15 16 17 18 19 20 21 22 23 24

992
FTUS43 KUNR 221252 AAA
TAFRAP
TAF AMD
KRAP 221252Z 2213/2312 35018G28KT P6SM BKN025
     FM221500 34015KT P6SM SCT035
     FM230000 36010KT P6SM -SHRA BKN025=

USA.gov is the U.S. government's official web portal to all federal, state and local government web resources and services.